Time;durP1;ratioP1;P1;durP2;ratioP2;P2;SDS_P1;SDS_P2;PMS_P1;PMS_P2;Temp;Humidity;BMP_temperature;BMP_pressure;BME280_temperature;BME280_humidity;BME280_pressure;Samples;Min_cycle;Max_cycle;Signal;HPM_P1;HPM_P2
2022/07/07 00:02:19;;;;;;;9.10;4.63;;;18.50;99.90;;;;;;6132437;23;20534;-86
2022/07/07 00:04:47;;;;;;;5.33;4.57;;;18.40;99.90;;;;;;6154864;23;20165;-85
2022/07/07 00:07:14;;;;;;;7.73;4.60;;;18.50;99.90;;;;;;6132092;23;20171;-84
2022/07/07 00:09:42;;;;;;;6.20;4.70;;;18.50;99.90;;;;;;6154607;23;20235;-85
2022/07/07 00:12:09;;;;;;;9.40;5.07;;;18.50;99.90;;;;;;6155756;23;20755;-85
2022/07/07 00:14:36;;;;;;;7.53;4.57;;;18.50;99.90;;;;;;6156148;23;20172;-84
2022/07/07 00:17:03;;;;;;;8.43;4.70;;;18.50;99.90;;;;;;6131496;23;20197;-86
2022/07/07 00:19:30;;;;;;;6.03;4.63;;;18.50;99.90;;;;;;6155586;23;20173;-84
2022/07/07 00:21:57;;;;;;;8.83;5.03;;;18.50;99.90;;;;;;6153913;23;20172;-86
2022/07/07 00:24:24;;;;;;;8.80;4.87;;;18.50;99.90;;;;;;6155810;23;20200;-85
2022/07/07 00:26:51;;;;;;;8.53;5.13;;;18.40;99.90;;;;;;6131754;23;20181;-85
2022/07/07 00:29:18;;;;;;;6.97;4.90;;;18.40;99.90;;;;;;6132056;23;20180;-84
2022/07/07 00:31:45;;;;;;;6.67;5.90;;;18.50;99.90;;;;;;6130972;23;20161;-87
2022/07/07 00:34:12;;;;;;;8.43;5.20;;;18.40;99.90;;;;;;6133392;23;20200;-85
2022/07/07 00:36:41;;;;;;;7.07;4.70;;;18.40;99.90;;;;;;6132267;23;20225;-86
2022/07/07 00:39:08;;;;;;;7.67;4.80;;;18.40;99.90;;;;;;6133541;23;20469;-86
2022/07/07 00:41:35;;;;;;;5.40;4.80;;;18.40;99.90;;;;;;6131394;23;20506;-86
2022/07/07 00:44:03;;;;;;;6.23;4.70;;;18.50;99.90;;;;;;6158044;23;20246;-85
2022/07/07 00:46:46;;;;;;;6.03;4.80;;;18.50;99.90;;;;;;6162167;23;20246;-86
2022/07/07 00:49:14;;;;;;;5.97;4.80;;;18.40;99.90;;;;;;6214552;23;20210;-85
2022/07/07 00:51:42;;;;;;;5.87;4.53;;;18.40;99.90;;;;;;6211746;23;20918;-86
2022/07/07 00:54:10;;;;;;;6.67;4.50;;;18.40;99.90;;;;;;6162162;23;20176;-85
2022/07/07 00:56:38;;;;;;;6.00;4.37;;;18.50;99.90;;;;;;6162736;23;20168;-85
2022/07/07 00:59:06;;;;;;;5.60;4.27;;;18.50;99.90;;;;;;6162522;23;20171;-85
2022/07/07 01:01:39;;;;;;;4.57;3.60;;;18.50;99.90;;;;;;6161892;23;20179;-85
2022/07/07 01:04:09;;;;;;;4.33;3.67;;;18.50;99.90;;;;;;6185817;23;20230;-85
2022/07/07 01:06:37;;;;;;;3.90;2.63;;;18.50;99.90;;;;;;6210440;23;20579;-86
2022/07/07 01:09:05;;;;;;;5.37;3.50;;;18.60;99.90;;;;;;6184924;23;20616;-84
2022/07/07 01:11:45;;;;;;;5.00;3.23;;;18.60;99.90;;;;;;6210997;23;20179;-84
2022/07/07 01:14:13;;;;;;;6.73;2.90;;;18.60;99.90;;;;;;6160169;23;20156;-85
2022/07/07 01:16:40;;;;;;;3.70;3.13;;;18.60;99.90;;;;;;6184708;23;20486;-85
2022/07/07 01:19:07;;;;;;;4.87;2.83;;;18.60;99.90;;;;;;6185930;23;20176;-87
2022/07/07 01:21:45;;;;;;;6.17;3.40;;;18.60;99.90;;;;;;6210578;23;20175;-85
2022/07/07 01:24:12;;;;;;;4.73;2.70;;;18.60;99.90;;;;;;6184328;23;20231;-86
2022/07/07 01:26:39;;;;;;;5.77;3.13;;;18.60;99.90;;;;;;6161166;23;20214;-85
2022/07/07 01:29:06;;;;;;;3.53;2.63;;;18.70;99.90;;;;;;6161397;23;20661;-87
2022/07/07 01:31:33;;;;;;;3.77;3.17;;;18.60;99.90;;;;;;6159375;23;20168;-87
2022/07/07 01:34:00;;;;;;;5.90;2.77;;;18.60;99.90;;;;;;6136490;23;20202;-85
2022/07/07 01:36:27;;;;;;;4.77;2.87;;;18.60;99.90;;;;;;6160455;23;20162;-86
2022/07/07 01:38:54;;;;;;;5.40;3.00;;;18.70;99.90;;;;;;6161738;23;20327;-84
2022/07/07 01:41:21;;;;;;;4.17;2.63;;;18.80;99.90;;;;;;6163768;23;20202;-85
2022/07/07 01:47:36;;;;;;;10.73;2.50;;;18.70;99.90;;;;;;6216787;23;20185;-86
2022/07/07 01:50:04;;;;;;;3.47;2.53;;;18.70;99.90;;;;;;6169182;23;20238;-84
2022/07/07 01:52:31;;;;;;;4.27;2.47;;;18.70;99.90;;;;;;6169914;23;20188;-84
2022/07/07 01:54:58;;;;;;;3.70;2.90;;;18.70;99.90;;;;;;6166914;23;20160;-86
2022/07/07 01:57:25;;;;;;;3.33;2.50;;;18.70;99.90;;;;;;6189712;23;20184;-86
2022/07/07 01:59:52;;;;;;;4.40;2.63;;;18.70;99.90;;;;;;6167804;23;20162;-86
2022/07/07 02:02:19;;;;;;;4.87;2.60;;;18.70;99.90;;;;;;6190487;23;20196;-86
2022/07/07 02:04:46;;;;;;;3.43;2.50;;;18.80;99.90;;;;;;6142178;23;20169;-87
2022/07/07 02:07:13;;;;;;;3.90;2.57;;;18.90;99.90;;;;;;6142437;23;20205;-86
2022/07/07 02:09:40;;;;;;;4.17;2.90;;;18.90;99.90;;;;;;6142194;23;20216;-86
2022/07/07 02:12:07;;;;;;;4.07;2.40;;;18.90;99.90;;;;;;6141207;23;20170;-87
2022/07/07 02:14:34;;;;;;;2.33;2.10;;;18.90;99.90;;;;;;6164128;23;20162;-87
2022/07/07 02:17:01;;;;;;;4.73;2.57;;;18.80;99.90;;;;;;6187269;23;20229;-87
2022/07/07 02:19:28;;;;;;;3.23;2.00;;;18.90;99.90;;;;;;6163577;23;20245;-85
2022/07/07 02:21:55;;;;;;;4.23;1.97;;;18.90;99.90;;;;;;6136962;23;20578;-86
2022/07/07 02:24:22;;;;;;;2.27;1.97;;;19.00;99.90;;;;;;6187001;23;20163;-86
2022/07/07 02:26:49;;;;;;;3.70;1.77;;;19.00;99.90;;;;;;6162051;23;20224;-85
2022/07/07 02:29:16;;;;;;;4.10;2.03;;;19.00;99.90;;;;;;6162753;23;20168;-86
2022/07/07 02:31:43;;;;;;;9.63;2.00;;;18.90;99.90;;;;;;6185319;23;20168;-86
2022/07/07 02:34:10;;;;;;;3.77;1.93;;;18.90;99.90;;;;;;6161656;23;20165;-87
2022/07/07 02:36:37;;;;;;;1.30;1.20;;;18.90;99.90;;;;;;6135181;23;20238;-86
2022/07/07 02:39:04;;;;;;;2.37;1.30;;;18.90;99.90;;;;;;6136302;23;20172;-84
2022/07/07 02:41:31;;;;;;;5.27;1.57;;;18.90;99.90;;;;;;6160749;23;20304;-86
2022/07/07 02:43:58;;;;;;;3.50;1.17;;;18.90;99.90;;;;;;6159890;23;20203;-86
2022/07/07 02:46:25;;;;;;;1.37;1.20;;;18.80;99.90;;;;;;6185264;23;20900;-86
2022/07/07 02:48:52;;;;;;;3.43;1.40;;;18.80;99.90;;;;;;6136841;23;20164;-86
2022/07/07 02:51:19;;;;;;;3.33;1.27;;;18.70;99.90;;;;;;6158332;23;20176;-86
2022/07/07 02:53:46;;;;;;;2.67;1.67;;;18.70;99.90;;;;;;6135603;23;20199;-86
2022/07/07 02:56:13;;;;;;;2.27;1.30;;;18.70;99.90;;;;;;6160400;23;20168;-87
2022/07/07 02:58:39;;;;;;;2.07;1.23;;;18.60;99.90;;;;;;6160388;23;20190;-87
2022/07/07 03:01:06;;;;;;;1.93;1.60;;;18.60;99.90;;;;;;6136565;23;20233;-87
2022/07/07 03:03:33;;;;;;;2.30;1.60;;;18.50;99.90;;;;;;6161562;23;20539;-85
2022/07/07 03:06:00;;;;;;;3.13;1.67;;;18.50;99.90;;;;;;6159626;23;20196;-87
2022/07/07 03:08:27;;;;;;;3.73;1.70;;;18.50;99.90;;;;;;6160936;23;20164;-84
2022/07/07 03:10:58;;;;;;;2.30;1.20;;;18.30;99.90;;;;;;6138109;23;20183;-85
2022/07/07 03:13:25;;;;;;;1.60;1.50;;;18.30;99.90;;;;;;6186160;23;20195;-87
2022/07/07 03:15:54;;;;;;;3.10;1.70;;;18.20;99.90;;;;;;6162633;23;20471;-85
2022/07/07 03:18:21;;;;;;;1.97;1.77;;;18.20;99.90;;;;;;6163269;23;20164;-85
2022/07/07 03:20:48;;;;;;;1.90;1.57;;;18.20;99.90;;;;;;6138101;23;20710;-86
2022/07/07 03:23:15;;;;;;;3.20;1.90;;;18.10;99.90;;;;;;6138462;23;20172;-86
2022/07/07 03:25:42;;;;;;;4.03;2.00;;;17.90;99.90;;;;;;6138007;23;20480;-85
2022/07/07 03:28:09;;;;;;;3.47;2.10;;;18.00;99.90;;;;;;6162958;23;20614;-84
2022/07/07 03:30:36;;;;;;;5.13;2.03;;;17.90;99.90;;;;;;6138199;23;20165;-86
2022/07/07 03:33:04;;;;;;;4.10;1.37;;;17.90;99.90;;;;;;6165935;23;20246;-87
2022/07/07 03:35:31;;;;;;;2.03;1.67;;;17.80;99.90;;;;;;6163169;23;20164;-86
2022/07/07 03:37:57;;;;;;;3.87;1.53;;;17.80;99.90;;;;;;6163992;23;20176;-87
2022/07/07 03:40:25;;;;;;;1.97;1.50;;;17.70;99.90;;;;;;6187469;23;20299;-87
2022/07/07 03:42:51;;;;;;;1.83;1.53;;;17.80;99.90;;;;;;6154621;23;20204;-84
2022/07/07 03:45:18;;;;;;;3.00;1.67;;;17.70;99.90;;;;;;6132976;23;20165;-85
2022/07/07 03:47:45;;;;;;;3.63;2.13;;;17.80;99.90;;;;;;6133479;23;20188;-86
2022/07/07 03:50:12;;;;;;;4.37;1.80;;;17.80;99.90;;;;;;6182807;23;20161;-85
2022/07/07 03:52:39;;;;;;;2.70;1.70;;;17.80;99.90;;;;;;6132780;23;20164;-87
2022/07/07 03:55:07;;;;;;;2.30;1.67;;;17.80;99.90;;;;;;6132369;23;20161;-86
2022/07/07 03:57:35;;;;;;;2.40;1.60;;;17.60;99.90;;;;;;6133255;23;20165;-86
2022/07/07 04:00:04;;;;;;;3.93;1.50;;;17.60;99.90;;;;;;6134214;23;20165;-86
2022/07/07 04:02:31;;;;;;;3.67;1.60;;;17.60;99.90;;;;;;6132630;23;20176;-85
2022/07/07 04:04:58;;;;;;;2.27;1.83;;;17.50;99.90;;;;;;6132894;23;20175;-86
2022/07/07 04:07:25;;;;;;;2.30;1.90;;;17.60;99.90;;;;;;6157123;23;20274;-86
2022/07/07 04:09:52;;;;;;;2.20;1.90;;;17.60;99.90;;;;;;6132137;23;20161;-87
2022/07/07 04:12:19;;;;;;;2.50;1.70;;;17.60;99.90;;;;;;6132216;23;20174;-85
2022/07/07 04:14:46;;;;;;;2.67;2.20;;;17.60;99.90;;;;;;6131798;23;20181;-86
2022/07/07 04:17:12;;;;;;;3.50;1.97;;;17.60;99.90;;;;;;6132316;23;20177;-87
2022/07/07 04:19:40;;;;;;;2.50;2.17;;;17.60;99.90;;;;;;6133429;23;20216;-87
2022/07/07 04:22:07;;;;;;;5.20;2.07;;;17.40;99.90;;;;;;6157204;23;20290;-88
2022/07/07 04:24:33;;;;;;;4.13;2.17;;;17.50;99.90;;;;;;6133093;23;20172;-87
2022/07/07 04:27:01;;;;;;;3.60;2.50;;;17.40;99.90;;;;;;6132083;23;20270;-86
2022/07/07 04:29:27;;;;;;;3.20;2.33;;;17.40;99.90;;;;;;6132698;23;20170;-86
2022/07/07 04:31:54;;;;;;;2.30;2.10;;;17.50;99.90;;;;;;6156471;23;20524;-88
2022/07/07 04:34:22;;;;;;;4.60;2.07;;;17.40;99.90;;;;;;6133573;23;20167;-86
2022/07/07 04:36:49;;;;;;;2.80;2.27;;;17.40;99.90;;;;;;6131331;23;20173;-86
2022/07/07 04:39:17;;;;;;;3.77;1.87;;;17.60;99.90;;;;;;6131892;23;20169;-86
2022/07/07 04:41:43;;;;;;;4.57;1.83;;;17.20;99.90;;;;;;6156959;23;20165;-87
2022/07/07 04:44:10;;;;;;;4.87;2.10;;;17.20;99.90;;;;;;6157461;23;20295;-85
2022/07/07 04:46:38;;;;;;;6.77;1.90;;;17.20;99.90;;;;;;6161384;23;20226;-86
2022/07/07 04:49:05;;;;;;;2.90;2.00;;;17.40;99.90;;;;;;6163080;23;20592;-86
2022/07/07 04:51:32;;;;;;;1.67;1.57;;;17.30;99.90;;;;;;6136582;23;20168;-86
2022/07/07 04:53:58;;;;;;;3.07;1.47;;;17.20;99.90;;;;;;6138606;23;20658;-86
2022/07/07 04:56:25;;;;;;;4.50;1.60;;;17.30;99.90;;;;;;6161869;23;20156;-87
2022/07/07 04:58:52;;;;;;;3.00;1.47;;;17.40;99.90;;;;;;6161370;23;20250;-88
2022/07/07 05:01:19;;;;;;;3.73;1.23;;;17.30;99.90;;;;;;6211763;23;20203;-87
2022/07/07 05:03:46;;;;;;;4.87;1.77;;;17.30;99.90;;;;;;6187948;23;20225;-86
2022/07/07 05:06:14;;;;;;;4.47;1.77;;;17.20;99.90;;;;;;6161297;23;20175;-85
2022/07/07 05:08:40;;;;;;;4.07;1.40;;;17.10;99.90;;;;;;6162130;23;20163;-85
2022/07/07 05:11:08;;;;;;;3.23;1.27;;;17.00;99.90;;;;;;6161617;23;20166;-86
2022/07/07 05:13:34;;;;;;;2.53;1.30;;;17.10;99.90;;;;;;6161649;23;20191;-87
2022/07/07 05:16:02;;;;;;;4.30;1.20;;;17.00;99.90;;;;;;6161677;23;20491;-87
2022/07/07 05:18:32;;;;;;;2.27;1.57;;;17.10;99.90;;;;;;6163006;23;20319;-87
2022/07/07 05:20:59;;;;;;;3.93;1.37;;;17.20;99.90;;;;;;6163196;23;20534;-86
2022/07/07 05:23:26;;;;;;;3.10;1.40;;;17.20;99.90;;;;;;6138296;23;20490;-87
2022/07/07 05:25:55;;;;;;;5.50;1.97;;;17.20;99.90;;;;;;6138593;23;20606;-86
2022/07/07 05:28:22;;;;;;;5.17;1.40;;;17.20;99.90;;;;;;6165316;23;20180;-87
2022/07/07 05:30:49;;;;;;;3.67;1.37;;;17.30;99.90;;;;;;6165921;23;20159;-86
2022/07/07 05:33:16;;;;;;;5.53;1.40;;;17.20;99.90;;;;;;6172529;23;20640;-86
2022/07/07 05:35:43;;;;;;;5.77;2.13;;;17.20;99.90;;;;;;6192764;23;20210;-86
2022/07/07 05:38:11;;;;;;;5.50;1.60;;;17.10;99.90;;;;;;6141054;23;20164;-88
2022/07/07 05:40:38;;;;;;;3.00;1.50;;;17.20;99.90;;;;;;6189041;23;20242;-87
2022/07/07 05:43:05;;;;;;;5.47;1.97;;;17.30;99.90;;;;;;6189591;23;20203;-86
2022/07/07 05:45:32;;;;;;;5.00;1.50;;;17.10;99.90;;;;;;6167537;23;20172;-86
2022/07/07 05:47:59;;;;;;;10.20;1.90;;;17.00;99.90;;;;;;6188901;23;20215;-87
2022/07/07 05:50:34;;;;;;;5.33;1.30;;;17.20;99.90;;;;;;6146319;23;20242;-87
2022/07/07 05:53:01;;;;;;;4.73;1.40;;;17.00;99.90;;;;;;6188813;23;20190;-85
2022/07/07 05:55:28;;;;;;;7.67;1.63;;;17.10;99.90;;;;;;6139135;23;20561;-86
2022/07/07 05:57:56;;;;;;;6.77;2.17;;;17.00;99.90;;;;;;6136169;23;20168;-87
2022/07/07 06:00:24;;;;;;;4.40;2.50;;;17.10;99.90;;;;;;6181695;23;20195;-86
2022/07/07 06:02:52;;;;;;;5.37;1.73;;;17.10;99.90;;;;;;6183767;23;20222;-86
2022/07/07 06:05:20;;;;;;;4.93;1.67;;;17.10;99.90;;;;;;6184902;23;20169;-85
2022/07/07 06:07:46;;;;;;;6.30;1.87;;;17.20;99.90;;;;;;6160214;23;20668;-83
2022/07/07 06:10:14;;;;;;;6.27;1.30;;;17.20;99.90;;;;;;6159917;23;20195;-83
2022/07/07 06:12:41;;;;;;;5.97;1.50;;;17.10;99.90;;;;;;6184215;23;20545;-86
2022/07/07 06:15:09;;;;;;;9.33;1.40;;;17.30;99.90;;;;;;6185257;23;20159;-84
2022/07/07 06:17:36;;;;;;;13.17;1.50;;;17.30;99.90;;;;;;6184039;23;20168;-85
2022/07/07 06:20:23;;;;;;;4.97;1.13;;;17.40;99.90;;;;;;6168421;23;20178;-84
2022/07/07 06:22:50;;;;;;;7.70;1.80;;;17.20;99.90;;;;;;6135739;23;20171;-82
2022/07/07 06:25:17;;;;;;;9.37;1.60;;;17.30;99.90;;;;;;6136300;23;20164;-83
2022/07/07 06:27:44;;;;;;;6.37;1.60;;;17.40;99.90;;;;;;6159867;23;20179;-84
2022/07/07 06:30:11;;;;;;;5.70;1.73;;;17.50;99.90;;;;;;6137014;23;20223;-83
2022/07/07 06:32:38;;;;;;;3.90;0.93;;;17.50;99.90;;;;;;6212033;23;20592;-84
2022/07/07 06:35:06;;;;;;;4.23;1.23;;;17.10;99.90;;;;;;6135408;23;21083;-84
2022/07/07 06:37:33;;;;;;;6.37;1.80;;;16.90;99.90;;;;;;6185379;23;20164;-83
2022/07/07 06:40:00;;;;;;;5.97;1.80;;;16.80;99.90;;;;;;6184497;23;20584;-84
2022/07/07 06:42:27;;;;;;;4.13;1.40;;;16.90;99.90;;;;;;6157422;23;20195;-82
2022/07/07 06:44:54;;;;;;;3.53;1.20;;;16.80;99.90;;;;;;6131637;23;20219;-84
2022/07/07 06:47:21;;;;;;;3.97;1.00;;;16.90;99.90;;;;;;6131306;23;20320;-81
2022/07/07 06:49:48;;;;;;;4.77;1.10;;;17.10;99.90;;;;;;6130056;23;20165;-84
2022/07/07 06:52:15;;;;;;;5.47;1.13;;;17.20;99.90;;;;;;6131933;23;20165;-84
2022/07/07 06:54:42;;;;;;;2.97;1.00;;;17.30;99.90;;;;;;6132365;23;20211;-83
2022/07/07 06:57:09;;;;;;;5.07;1.03;;;17.30;99.90;;;;;;6131099;23;20180;-83
2022/07/07 06:59:36;;;;;;;3.70;0.97;;;17.40;99.90;;;;;;6130474;23;20222;-84
2022/07/07 07:02:04;;;;;;;4.87;1.03;;;17.70;99.90;;;;;;6127756;23;20188;-83
2022/07/07 07:04:31;;;;;;;4.10;1.03;;;17.90;99.90;;;;;;6153142;23;20184;-83
2022/07/07 07:07:00;;;;;;;7.67;1.10;;;17.80;99.90;;;;;;6155186;23;20223;-83
2022/07/07 07:09:27;;;;;;;5.47;1.10;;;18.00;99.90;;;;;;6131039;23;20180;-83
2022/07/07 07:11:54;;;;;;;2.63;0.90;;;17.90;99.90;;;;;;6128978;23;20164;-83
2022/07/07 07:14:25;;;;;;;2.13;0.70;;;18.10;99.90;;;;;;6133962;23;20172;-83
2022/07/07 07:16:52;;;;;;;2.53;0.80;;;18.00;99.90;;;;;;6180770;23;20181;-83
2022/07/07 07:19:19;;;;;;;1.83;0.70;;;17.90;99.90;;;;;;6129834;23;20252;-83
2022/07/07 07:21:46;;;;;;;3.67;0.90;;;17.90;99.90;;;;;;6129974;23;20158;-83
2022/07/07 07:24:13;;;;;;;4.43;1.50;;;17.80;99.90;;;;;;6132334;23;20179;-82
2022/07/07 07:26:40;;;;;;;3.13;0.90;;;17.80;99.90;;;;;;6129673;23;20175;-83
2022/07/07 07:29:12;;;;;;;2.57;0.87;;;17.80;99.90;;;;;;6133380;23;20237;-84
2022/07/07 07:31:39;;;;;;;3.30;1.10;;;17.80;99.90;;;;;;6155887;23;20919;-81
2022/07/07 07:34:07;;;;;;;1.23;0.90;;;17.80;99.90;;;;;;6131006;23;20240;-83
2022/07/07 07:36:34;;;;;;;4.27;1.20;;;18.00;99.90;;;;;;6130252;23;20166;-83
2022/07/07 07:39:00;;;;;;;5.50;1.13;;;18.10;99.90;;;;;;6128802;23;20628;-83
2022/07/07 07:41:27;;;;;;;6.07;1.60;;;18.00;99.90;;;;;;6154650;23;20267;-82
2022/07/07 07:43:54;;;;;;;3.80;1.10;;;18.00;99.90;;;;;;6150851;23;21040;-83
2022/07/07 07:46:21;;;;;;;5.07;1.57;;;17.80;99.90;;;;;;6159415;23;20167;-83
2022/07/07 07:48:48;;;;;;;2.63;0.80;;;17.60;99.90;;;;;;6135896;23;20215;-82
2022/07/07 07:51:15;;;;;;;1.67;0.67;;;17.50;99.90;;;;;;6182877;23;20164;-83
2022/07/07 07:53:42;;;;;;;4.13;0.97;;;17.30;99.90;;;;;;6159340;23;20160;-83
2022/07/07 07:56:09;;;;;;;2.83;0.97;;;17.30;99.90;;;;;;6161294;23;20603;-83
2022/07/07 07:58:36;;;;;;;2.40;0.87;;;17.40;99.90;;;;;;6134894;23;20184;-83
2022/07/07 08:01:04;;;;;;;2.13;0.80;;;17.40;99.90;;;;;;6135563;23;20175;-82
2022/07/07 08:03:31;;;;;;;2.70;1.03;;;17.40;99.90;;;;;;6162142;23;20176;-83
2022/07/07 08:05:59;;;;;;;2.23;0.97;;;17.50;99.90;;;;;;6139291;23;20158;-82
2022/07/07 08:08:28;;;;;;;3.50;1.10;;;17.50;99.90;;;;;;6165154;23;20656;-83
2022/07/07 08:10:55;;;;;;;1.20;0.50;;;17.50;99.90;;;;;;6167285;23;20171;-83
2022/07/07 08:13:22;;;;;;;3.13;0.60;;;17.30;99.90;;;;;;6168585;23;20248;-82
2022/07/07 08:15:49;;;;;;;2.00;0.50;;;17.40;99.90;;;;;;6170272;23;20174;-81
2022/07/07 08:18:16;;;;;;;1.03;0.50;;;17.40;99.90;;;;;;6170334;23;20166;-81
2022/07/07 08:20:43;;;;;;;5.20;0.80;;;17.60;99.90;;;;;;6164998;23;20163;-82
2022/07/07 08:23:10;;;;;;;3.57;0.67;;;17.70;99.90;;;;;;6144836;23;20160;-81
2022/07/07 08:25:37;;;;;;;2.90;0.70;;;17.70;1.00;;;;;;6166754;23;20220;-83
2022/07/07 08:28:04;;;;;;;2.20;0.80;;;17.70;1.00;;;;;;6169578;23;20631;-82
2022/07/07 08:30:31;;;;;;;3.27;1.17;;;18.00;99.90;;;;;;6169043;23;20157;-81
2022/07/07 08:32:58;;;;;;;2.43;0.87;;;18.50;37.60;;;;;;6195369;23;20155;-83
2022/07/07 08:35:25;;;;;;;2.27;0.90;;;18.70;1.00;;;;;;6171061;23;20160;-82
2022/07/07 08:37:52;;;;;;;5.13;0.80;;;18.60;24.40;;;;;;6144554;23;20180;-83
2022/07/07 08:40:19;;;;;;;4.40;1.00;;;18.90;99.90;;;;;;6186865;23;20196;-82
2022/07/07 08:42:46;;;;;;;3.33;0.70;;;19.00;99.90;;;;;;6135763;23;20220;-82
2022/07/07 08:45:13;;;;;;;3.90;1.40;;;19.00;99.90;;;;;;6134020;23;20179;-82
2022/07/07 08:47:41;;;;;;;4.03;0.80;;;18.90;1.00;;;;;;6159721;23;20186;-82
2022/07/07 08:50:15;;;;;;;5.23;1.10;;;18.70;78.10;;;;;;6137028;23;20594;-81
2022/07/07 08:52:43;;;;;;;4.13;1.10;;;18.30;1.00;;;;;;6135449;23;20478;-82
2022/07/07 08:55:15;;;;;;;3.60;0.93;;;18.10;1.00;;;;;;6160999;23;20153;-82
2022/07/07 08:57:42;;;;;;;7.47;0.93;;;18.10;21.10;;;;;;6158041;23;20173;-82
2022/07/07 09:00:10;;;;;;;3.00;0.90;;;18.10;1.00;;;;;;6134671;23;20188;-82
2022/07/07 09:02:37;;;;;;;5.23;1.07;;;18.20;1.00;;;;;;6130378;23;20184;-83
2022/07/07 09:05:05;;;;;;;4.63;0.97;;;18.00;1.00;;;;;;6130562;23;20843;-82
2022/07/07 09:07:49;;;;;;;4.50;0.97;;;18.00;1.00;;;;;;6131256;23;20235;-82
2022/07/07 09:10:30;;;;;;;2.57;0.93;;;18.10;99.90;;;;;;6154753;23;20232;-82
2022/07/07 09:12:58;;;;;;;6.20;1.40;;;18.20;1.00;;;;;;6128976;23;20611;-82
2022/07/07 09:15:26;;;;;;;5.97;1.07;;;18.20;99.90;;;;;;6152121;23;20648;-82
2022/07/07 09:17:53;;;;;;;3.90;1.10;;;18.20;1.00;;;;;;6154592;23;20244;-82
2022/07/07 09:20:22;;;;;;;4.97;1.10;;;18.20;99.90;;;;;;6154539;23;20613;-82
2022/07/07 09:22:52;;;;;;;4.27;0.97;;;18.40;1.00;;;;;;6130734;23;20173;-82
2022/07/07 09:25:28;;;;;;;4.57;1.03;;;18.50;1.00;;;;;;6155369;23;20173;-83
2022/07/07 09:28:14;;;;;;;5.53;1.60;;;18.40;1.00;;;;;;6155594;23;20232;-82
2022/07/07 09:30:43;;;;;;;2.47;1.30;;;18.40;1.00;;;;;;6151677;23;20177;-82
2022/07/07 09:33:25;;;;;;;1.80;0.80;;;18.10;1.00;;;;;;6155405;23;20176;-82
2022/07/07 09:38:41;;;;;;;2.63;0.63;;;18.20;99.90;;;;;;6157881;23;20165;-83
2022/07/07 09:41:13;;;;;;;3.67;1.47;;;18.10;1.00;;;;;;6153615;23;20229;-82
2022/07/07 09:43:51;;;;;;;6.20;1.13;;;18.30;1.00;;;;;;6169102;23;20573;-83
2022/07/07 09:46:29;;;;;;;2.10;0.80;;;18.50;1.00;;;;;;6183074;23;20198;-82
2022/07/07 09:49:00;;;;;;;4.90;0.70;;;18.70;1.00;;;;;;6185646;23;20264;-82
2022/07/07 09:51:34;;;;;;;3.90;0.77;;;18.80;99.90;;;;;;6160221;23;20164;-81
2022/07/07 09:54:05;;;;;;;1.47;0.70;;;18.80;86.90;;;;;;6184185;23;20224;-81
2022/07/07 09:56:35;;;;;;;4.77;2.30;;;18.70;99.90;;;;;;6210306;23;20171;-83
2022/07/07 09:59:08;;;;;;;1.67;1.00;;;18.60;92.00;;;;;;6209648;23;20169;-82
2022/07/07 10:01:38;;;;;;;3.50;1.13;;;18.50;1.00;;;;;;6161070;23;20177;-84
2022/07/07 10:04:08;;;;;;;1.93;1.17;;;18.20;99.90;;;;;;6183000;23;20167;-82
2022/07/07 10:06:37;;;;;;;2.57;0.97;;;18.20;99.90;;;;;;6182070;23;20180;-82
2022/07/07 10:09:07;;;;;;;4.77;1.10;;;18.20;1.00;;;;;;6182354;23;20197;-83
2022/07/07 10:11:42;;;;;;;2.97;1.20;;;18.10;1.00;;;;;;6182287;23;20158;-83
2022/07/07 10:14:17;;;;;;;3.83;1.23;;;18.10;1.00;;;;;;6181796;23;20153;-82
2022/07/07 10:16:46;;;;;;;5.40;1.30;;;18.40;1.00;;;;;;6181922;23;20596;-83
2022/07/07 10:19:16;;;;;;;3.67;1.20;;;18.70;1.00;;;;;;6182294;23;20503;-83
2022/07/07 10:21:45;;;;;;;2.80;0.80;;;19.00;1.00;;;;;;6181030;23;20171;-83
2022/07/07 10:24:18;;;;;;;2.83;1.40;;;18.90;1.00;;;;;;6182551;23;20620;-83
2022/07/07 10:26:50;;;;;;;3.13;0.97;;;18.90;99.90;;;;;;6182584;23;20188;-83
2022/07/07 10:29:35;;;;;;;3.00;0.80;;;18.90;16.20;;;;;;6209652;23;20186;-83
2022/07/07 10:32:02;;;;;;;3.33;1.10;;;18.80;1.00;;;;;;6183081;23;20161;-82
2022/07/07 10:34:33;;;;;;;1.87;0.90;;;18.60;1.00;;;;;;6157788;23;20161;-83
2022/07/07 10:37:09;;;;;;;3.53;1.00;;;18.40;38.80;;;;;;6183828;23;20178;-82
2022/07/07 10:39:48;;;;;;;2.50;1.03;;;18.30;99.90;;;;;;6183447;23;20160;-82
2022/07/07 10:42:14;;;;;;;5.70;0.93;;;18.30;1.00;;;;;;6185064;23;20169;-83
2022/07/07 10:44:45;;;;;;;1.87;0.80;;;18.30;1.00;;;;;;6185201;23;20658;-82
2022/07/07 10:47:12;;;;;;;4.17;0.80;;;18.50;99.90;;;;;;6184563;23;20811;-82
2022/07/07 10:49:44;;;;;;;3.10;1.00;;;18.60;1.00;;;;;;6182828;23;20279;-82
2022/07/07 10:52:18;;;;;;;2.23;1.20;;;18.90;1.00;;;;;;6185447;23;20179;-82
2022/07/07 10:55:00;;;;;;;3.43;1.00;;;19.00;1.00;;;;;;6210603;23;20160;-81
2022/07/07 10:57:29;;;;;;;3.17;1.10;;;19.10;1.00;;;;;;6184767;23;20166;-81
2022/07/07 10:59:56;;;;;;;4.73;1.37;;;18.90;1.00;;;;;;6209844;23;20182;-82
2022/07/07 11:02:30;;;;;;;4.30;1.20;;;18.80;1.00;;;;;;6184733;23;20187;-83
2022/07/07 11:04:58;;;;;;;6.63;1.37;;;18.60;1.00;;;;;;6183462;23;20168;-82
2022/07/07 11:07:26;;;;;;;4.03;1.27;;;18.60;1.00;;;;;;6159969;23;20491;-83
2022/07/07 11:10:03;;;;;;;5.13;1.53;;;18.40;1.00;;;;;;6183554;23;20184;-82
2022/07/07 11:12:45;;;;;;;3.33;1.10;;;18.50;1.00;;;;;;6184438;23;20676;-82
2022/07/07 11:15:14;;;;;;;4.00;1.17;;;18.40;1.00;;;;;;6183445;23;20192;-82
2022/07/07 11:18:00;;;;;;;4.30;1.33;;;18.50;99.90;;;;;;6181672;23;20159;-83
2022/07/07 11:20:32;;;;;;;5.13;1.50;;;18.40;99.90;;;;;;6181940;23;20190;-83
2022/07/07 11:23:11;;;;;;;5.87;1.50;;;18.40;1.00;;;;;;6158740;23;20158;-83
2022/07/07 11:25:39;;;;;;;4.83;1.80;;;18.30;1.00;;;;;;6183371;23;20209;-84
2022/07/07 11:28:09;;;;;;;3.00;1.23;;;18.30;1.00;;;;;;6134162;23;20190;-84
2022/07/07 11:30:39;;;;;;;5.40;1.80;;;18.40;1.00;;;;;;6182462;23;20161;-84
2022/07/07 11:33:06;;;;;;;5.07;2.03;;;18.60;99.90;;;;;;6181426;23;20238;-84
2022/07/07 11:35:36;;;;;;;2.43;1.10;;;18.70;1.00;;;;;;6183778;23;20161;-84
2022/07/07 11:38:05;;;;;;;6.57;1.67;;;19.00;1.00;;;;;;6159858;23;20581;-83
2022/07/07 11:40:32;;;;;;;3.67;1.40;;;19.00;99.90;;;;;;6184655;23;20270;-86
2022/07/07 11:43:03;;;;;;;4.90;1.60;;;18.80;1.00;;;;;;6131803;23;20726;-84
2022/07/07 11:45:38;;;;;;;8.50;1.43;;;18.70;99.90;;;;;;6157714;23;20166;-84
2022/07/07 11:48:07;;;;;;;3.27;1.30;;;18.80;1.00;;;;;;6181217;23;20459;-83
2022/07/07 11:50:35;;;;;;;5.10;1.37;;;18.80;99.90;;;;;;6155998;23;20280;-85
2022/07/07 11:53:05;;;;;;;2.40;1.40;;;19.00;1.00;;;;;;6158694;23;20261;-86
2022/07/07 11:55:32;;;;;;;5.83;1.47;;;19.30;1.00;;;;;;6158774;23;20646;-84
2022/07/07 11:58:04;;;;;;;4.27;1.10;;;19.20;1.00;;;;;;6157344;23;20614;-82
2022/07/07 12:00:39;;;;;;;3.33;1.27;;;19.10;99.90;;;;;;6157810;23;20224;-82
2022/07/07 12:03:08;;;;;;;5.17;1.30;;;19.10;99.90;;;;;;6157345;23;20182;-83
2022/07/07 12:05:38;;;;;;;4.50;1.00;;;19.00;1.00;;;;;;6155925;23;20182;-83
2022/07/07 12:08:08;;;;;;;5.17;1.60;;;19.30;24.20;;;;;;6156344;23;20319;-85
2022/07/07 12:10:37;;;;;;;4.47;1.20;;;19.20;1.00;;;;;;6158122;23;20656;-84
2022/07/07 12:13:13;;;;;;;5.27;1.50;;;19.10;99.90;;;;;;6155312;23;20159;-83
2022/07/07 12:15:46;;;;;;;3.57;1.60;;;19.00;99.90;;;;;;6158680;23;20167;-84
2022/07/07 12:18:17;;;;;;;2.50;1.10;;;19.20;1.00;;;;;;6158749;23;20564;-82
2022/07/07 12:20:58;;;;;;;2.97;0.93;;;19.60;1.00;;;;;;6153421;23;20169;-82
2022/07/07 12:23:25;;;;;;;2.97;1.10;;;19.50;99.90;;;;;;6155444;23;20168;-82
2022/07/07 12:26:04;;;;;;;2.33;1.10;;;19.70;1.00;;;;;;6155491;23;20224;-82
2022/07/07 12:28:35;;;;;;;2.30;1.10;;;19.60;1.00;;;;;;6152215;23;20194;-82
2022/07/07 12:31:04;;;;;;;1.83;0.87;;;19.40;1.00;;;;;;6155547;23;20237;-82
2022/07/07 12:33:32;;;;;;;5.77;1.33;;;19.40;99.90;;;;;;6153970;23;20165;-82
2022/07/07 12:36:09;;;;;;;2.03;1.00;;;19.40;1.00;;;;;;6152772;23;20169;-81
2022/07/07 12:38:47;;;;;;;3.20;0.93;;;19.30;1.00;;;;;;6179570;23;20165;-81
2022/07/07 12:41:28;;;;;;;2.63;0.97;;;19.20;99.90;;;;;;6152419;23;20656;-82
2022/07/07 12:44:09;;;;;;;2.77;1.00;;;19.30;1.00;;;;;;6172148;23;20258;-78
2022/07/07 12:46:37;;;;;;;2.93;1.00;;;19.20;1.00;;;;;;6184059;23;20179;-82
2022/07/07 12:49:04;;;;;;;6.03;2.00;;;19.00;1.00;;;;;;6160579;23;20176;-82
2022/07/07 12:51:31;;;;;;;1.83;0.80;;;19.30;1.00;;;;;;6159760;23;20220;-81
2022/07/07 12:53:59;;;;;;;3.60;1.10;;;20.30;99.90;;;;;;6158883;23;20631;-81
2022/07/07 12:56:35;;;;;;;2.23;1.53;;;20.30;1.00;;;;;;6209448;23;20159;-81
2022/07/07 12:59:18;;;;;;;4.90;1.10;;;19.80;28.80;;;;;;6185283;23;20164;-79
2022/07/07 13:01:51;;;;;;;3.50;1.60;;;19.30;1.00;;;;;;6183551;23;20188;-79
2022/07/07 13:04:24;;;;;;;4.97;1.57;;;19.20;1.00;;;;;;6184126;23;20164;-79